Flight Track Log - Related Links

Times and Time Zones

All times are in EDT time to prevent confusion due to time zone crossing. See the G-EZBG flight status page for this flight to view local times or setup timezone preferences in your user account.

Time Position Orientation Groundspeed Altitude Reporting Facility
EDT Latitude Longitude Course Direction KTS MPH feet Rate Location/Type
Fri 08:50:00 AM 37.4288 -3.5840 44° Northeast  Level Estimated
Fri 08:51:00 AM 37.4969 -3.4999 44° Northeast  Level Estimated
Fri 08:52:00 AM 37.5651 -3.4156 44° Northeast  Level Estimated
Fri 08:52:51 AM 36.8730 -4.6330 44° Northeast 287 330 10,000  Level FlightAware ADS-B
Fri 08:53:00 AM 37.6331 -3.3312 44° Northeast  Level Estimated
Fri 08:53:46 AM 36.9460 -4.6240 North 314 361 13,000  Level FlightAware ADS-B
Fri 08:54:01 AM 36.9570 -4.6010 59° Northeast 336 387 13,300 1,309 Climbing FlightAware ADS-B
Fri 08:54:41 AM 36.9730 -4.5180 76° East 382 440 14,200 2,188 Climbing FlightAware ADS-B
Fri 08:55:26 AM 36.9920 -4.4200 76° East 384 442 16,400 2,541 Climbing FlightAware ADS-B
Fri 08:56:06 AM 37.0100 -4.3340 75° East 403 464 17,800 2,047 Climbing FlightAware ADS-B
Fri 08:56:51 AM 37.0300 -4.2310 76° East 422 486 19,300 2,118 Climbing FlightAware ADS-B
Fri 08:57:31 AM 37.0500 -4.1320 76° East 429 494 20,800 2,175 Climbing FlightAware ADS-B
Fri 08:58:11 AM 37.0700 -4.0290 76° East 442 509 22,200 1,800 Climbing FlightAware ADS-B
Fri 08:59:31 AM 37.1080 -3.8360 76° East 462 532 24,400 1,471 Climbing FlightAware ADS-B
Fri 09:00:46 AM 37.1550 -3.6390 73° East 471 542 26,000 835 Climbing FlightAware ADS-B
Fri 09:01:26 AM 37.1790 -3.5510 71° East 471 542 26,000 2,057 Level FlightAware ADS-B
Fri 09:01:56 AM 37.2390 -3.4750 45° Northeast 487 560 28,400 2,215 Climbing FlightAware ADS-B
Fri 09:02:31 AM 37.2820 -3.4050 52° Northeast 487 560 28,400 1,624 Level FlightAware ADS-B
Fri 09:03:21 AM 37.3660 -3.3030 44° Northeast 486 559 30,700 2,188 Climbing FlightAware ADS-B
Fri 09:03:56 AM 37.3660 -3.3030 44° Northeast 486 559 31,500 600 Climbing FlightAware ADS-B
Fri 09:04:41 AM 37.3050 -3.3830 226° Southwest 486 559 31,500  Level FlightAware ADS-B
Fri 09:05:21 AM 37.2520 -3.4520 226° Southwest 486 559 31,500 1,906 Level FlightAware ADS-B
Fri 09:06:06 AM 37.6330 -2.9540 46° Northeast 500 575 34,200 2,333 Climbing FlightAware ADS-B
Fri 09:06:51 AM 37.7100 -2.8530 46° Northeast 511 588 35,000 1,148 Climbing FlightAware ADS-B
Fri 09:08:01 AM 37.8250 -2.7010 46° Northeast 512 589 36,400 1,200 Climbing FlightAware ADS-B
Fri 09:08:56 AM 37.9120 -2.5850 46° Northeast 501 577 37,500 1,067 Climbing FlightAware ADS-B
Fri 09:09:31 AM 37.9700 -2.5070 47° Northeast 501 577 38,000 353 Climbing FlightAware ADS-B
Fri 09:10:21 AM 38.0510 -2.4000 46° Northeast 497 572 38,000  Level FlightAware ADS-B
Fri 09:11:31 AM 38.1580 -2.2560 47° Northeast 498 573 38,000  Level FlightAware ADS-B
Fri 09:12:41 AM 38.2670 -2.0940 49° Northeast 504 580 38,000  Level FlightAware ADS-B
Fri 09:13:36 AM 38.3490 -1.9610 52° Northeast 505 581 38,000  Level FlightAware ADS-B
Fri 09:14:16 AM 38.4060 -1.8690 52° Northeast 505 581 38,000  Level FlightAware ADS-B
Fri 09:15:16 AM 38.4940 -1.7260 52° Northeast 505 581 38,000  Level FlightAware ADS-B
Fri 09:16:26 AM 38.5940 -1.5610 52° Northeast 505 581 38,000  Level FlightAware ADS-B
Fri 09:17:36 AM 38.6960 -1.3940 52° Northeast 504 580 38,000  Level FlightAware ADS-B
Fri 09:18:46 AM 38.7940 -1.2310 52° Northeast 504 580 38,000  Level FlightAware ADS-B
Fri 09:20:36 AM 38.9500 -0.9720 52° Northeast 510 587 38,000  Level FlightAware ADS-B
Fri 09:21:21 AM 39.0220 -0.8590 51° Northeast 505 581 38,000  Level FlightAware ADS-B
Fri 09:22:01 AM 39.0880 -0.7800 43° Northeast 499 574 38,000  Level FlightAware ADS-B
Fri 09:22:41 AM 39.1630 -0.7100 36° Northeast 491 565 38,000 71 Level FlightAware ADS-B
Fri 09:23:26 AM 39.2520 -0.6460 29° Northeast 484 557 38,100  Climbing FlightAware ADS-B
Fri 09:24:06 AM 39.3290 -0.5920 28° Northeast 485 558 38,000 -75 Descending FlightAware ADS-B
Fri 09:24:46 AM 39.4120 -0.5340 28° Northeast 485 558 38,000  Level FlightAware ADS-B
Fri 09:25:31 AM 39.4910 -0.4640 34° Northeast 495 570 38,000  Level FlightAware ADS-B
Fri 09:26:11 AM 39.5620 -0.3790 43° Northeast 502 578 38,000  Level FlightAware ADS-B
Fri 09:26:56 AM 39.6340 -0.2800 47° Northeast 502 578 38,000  Level FlightAware ADS-B
Fri 09:27:36 AM 39.6970 -0.1940 46° Northeast 500 575 38,000  Level FlightAware ADS-B
Fri 09:28:21 AM 39.7660 -0.0990 47° Northeast 501 577 38,000  Level FlightAware ADS-B
Fri 09:29:01 AM 39.8310 -0.0090 47° Northeast 503 579 38,000  Level FlightAware ADS-B
Fri 09:29:41 AM 39.8940 0.0790 47° Northeast 503 579 38,000  Level FlightAware ADS-B
Fri 09:30:26 AM 39.9660 0.1770 46° Northeast 503 579 38,000  Level FlightAware ADS-B
Fri 09:31:11 AM 40.0380 0.2780 47° Northeast 503 579 38,000  Level FlightAware ADS-B
Fri 09:31:51 AM 40.1000 0.3660 47° Northeast 501 577 38,000  Level FlightAware ADS-B
Fri 09:32:31 AM 40.1650 0.4580 47° Northeast 500 575 38,000  Level FlightAware ADS-B
Fri 09:33:16 AM 40.2370 0.5580 47° Northeast 500 575 38,000  Level FlightAware ADS-B
Fri 09:33:56 AM 40.3000 0.6480 47° Northeast 500 575 38,000  Level FlightAware ADS-B
Fri 09:34:41 AM 40.3690 0.7460 47° Northeast 501 577 38,000  Level FlightAware ADS-B
Fri 09:35:21 AM 40.4330 0.8350 47° Northeast 500 575 38,000  Level FlightAware ADS-B
Fri 09:36:01 AM 40.4960 0.9240 47° Northeast 501 577 38,000  Level FlightAware ADS-B
Fri 09:36:46 AM 40.5650 1.0250 48° Northeast 501 577 38,000  Level FlightAware ADS-B
Fri 09:37:26 AM 40.6280 1.1150 47° Northeast 501 577 38,000  Level FlightAware ADS-B
Fri 09:38:11 AM 40.7000 1.2190 48° Northeast 499 574 38,000  Level FlightAware ADS-B
Fri 09:38:51 AM 40.7630 1.3100 48° Northeast 499 574 38,000  Level FlightAware ADS-B
Fri 09:39:31 AM 40.8240 1.3980 47° Northeast 499 574 38,000  Level FlightAware ADS-B
Fri 09:40:11 AM 40.8850 1.4880 48° Northeast 499 574 38,000  Level FlightAware ADS-B
Fri 09:40:56 AM 40.9550 1.5880 47° Northeast 501 577 38,000  Level FlightAware ADS-B
Fri 09:41:36 AM 41.0170 1.6800 48° Northeast 499 574 38,000  Level FlightAware ADS-B
Fri 09:42:21 AM 41.0870 1.7830 48° Northeast 499 574 38,000  Level FlightAware ADS-B
Fri 09:43:01 AM 41.1480 1.8730 48° Northeast 496 571 38,000  Level FlightAware ADS-B
Fri 09:43:41 AM 41.2090 1.9640 48° Northeast 498 573 38,000  Level FlightAware ADS-B
Fri 09:44:26 AM 41.2680 2.0760 55° Northeast 504 580 38,000  Level FlightAware ADS-B
Fri 09:45:06 AM 41.3100 2.1870 63° Northeast 508 585 38,000  Level FlightAware ADS-B
Fri 09:45:46 AM 41.3420 2.3050 70° East 511 588 38,000  Level FlightAware ADS-B
Fri 09:46:31 AM 41.3670 2.4450 77° East 510 587 38,000  Level FlightAware ADS-B
Fri 09:47:11 AM 41.3880 2.5670 77° East 511 588 38,000  Level FlightAware ADS-B
Fri 09:47:56 AM 41.4120 2.7010 77° East 513 590 38,000  Level FlightAware ADS-B
Fri 09:48:36 AM 41.4310 2.8150 77° East 514 592 38,000  Level FlightAware ADS-B
Fri 09:49:16 AM 41.4520 2.9390 77° East 515 593 38,000  Level FlightAware ADS-B
Fri 09:50:01 AM 41.4780 3.0880 77° East 515 593 38,000  Level FlightAware ADS-B
Fri 09:50:46 AM 41.5020 3.2300 77° East 516 594 38,000  Level FlightAware ADS-B
Fri 09:51:26 AM 41.5220 3.3540 78° East 516 594 38,000  Level FlightAware ADS-B
Fri 09:52:11 AM 41.5450 3.4910 77° East 515 593 38,000  Level FlightAware ADS-B
Fri 09:52:51 AM 41.5650 3.6120 78° East 514 592 38,000  Level FlightAware ADS-B
Fri 09:53:31 AM 41.5860 3.7370 77° East 514 592 38,000  Level FlightAware ADS-B
Fri 09:54:16 AM 41.6090 3.8810 78° East 513 590 38,000  Level FlightAware ADS-B
Fri 09:54:56 AM 41.6290 4.0020 77° East 514 592 38,000  Level FlightAware ADS-B
Fri 09:55:36 AM 41.6480 4.1250 78° East 514 592 38,000  Level FlightAware ADS-B
Fri 09:56:21 AM 41.6700 4.2620 78° East 513 590 38,000  Level FlightAware ADS-B
Fri 09:57:01 AM 41.6900 4.3880 78° East 512 589 38,000  Level FlightAware ADS-B
Fri 09:57:46 AM 41.7340 4.5180 66° East 503 579 38,000  Level FlightAware ADS-B
Fri 09:58:26 AM 41.7980 4.6040 45° Northeast 499 574 38,000  Level FlightAware ADS-B
Fri 09:59:11 AM 41.8700 4.7020 45° Northeast 499 574 38,000  Level FlightAware ADS-B
Fri 09:59:51 AM 41.9350 4.7910 46° Northeast 499 574 38,000 75 Level FlightAware ADS-B
Fri 10:00:31 AM 41.9990 4.8800 46° Northeast 497 572 38,100  Climbing FlightAware ADS-B
Fri 10:01:11 AM 42.0620 4.9650 45° Northeast 496 571 38,000 -71 Descending FlightAware ADS-B
Fri 10:01:56 AM 42.1360 5.0670 46° Northeast 494 568 38,000  Level FlightAware ADS-B
Fri 10:02:41 AM 42.2070 5.1650 46° Northeast 493 567 38,000  Level FlightAware ADS-B
Fri 10:03:16 AM 42.2570 5.2350 46° Northeast 493 567 38,000  Level FlightAware ADS-B
Fri 10:04:01 AM 42.3320 5.3390 46° Northeast 494 568 38,000  Level FlightAware ADS-B
Fri 10:04:41 AM 42.3920 5.4190 45° Northeast 495 570 38,000  Level FlightAware ADS-B
Fri 10:05:21 AM 42.4470 5.4940 45° Northeast 495 570 38,000  Level FlightAware ADS-B
Fri 10:06:16 AM 42.5390 5.6280 47° Northeast 493 567 38,000 57 Level FlightAware ADS-B
Fri 10:07:06 AM 42.6250 5.7490 46° Northeast 492 566 38,100 71 Climbing FlightAware ADS-B
Fri 10:07:41 AM 42.6770 5.8220 46° Northeast 490 564 38,100 -71 Level FlightAware ADS-B
Fri 10:08:31 AM 42.7650 5.9480 46° Northeast 493 567 38,000 -71 Descending FlightAware ADS-B
Fri 10:09:06 AM 42.8170 6.0220 46° Northeast 493 567 38,000  Level FlightAware ADS-B
Fri 10:11:00 AM 42.9734 6.1644 34° Northeast  Level Estimated
Fri 10:11:31 AM 43.0330 6.3650 34° Northeast 516 594 38,000  Level FlightAware ADS-B
Fri 10:12:41 AM 43.1360 6.5430 52° Northeast 507 583 38,000  Level FlightAware ADS-B
Fri 10:13:36 AM 43.2190 6.6880 52° Northeast 506 582 38,000  Level FlightAware ADS-B
Fri 10:14:16 AM 43.2770 6.7890 52° Northeast 504 580 38,000 -353 Level FlightAware ADS-B
Fri 10:15:01 AM 43.3440 6.9060 52° Northeast 508 585 37,500 -776 Descending FlightAware ADS-B
Fri 10:15:41 AM 43.4010 7.0070 52° Northeast 512 589 36,900 -975 Descending FlightAware ADS-B
Fri 10:16:21 AM 43.4610 7.1120 52° Northeast 511 588 36,200 -1,694 Descending FlightAware ADS-B
Fri 10:17:06 AM 43.5220 7.2210 52° Northeast 520 598 34,500 -2,612 Descending FlightAware ADS-B
Fri 10:17:46 AM 43.5830 7.3300 52° Northeast 520 598 32,500 -2,682 Descending FlightAware ADS-B
Fri 10:18:31 AM 43.6500 7.4490 52° Northeast 523 602 30,700 -2,400 Descending FlightAware ADS-B
Fri 10:19:11 AM 43.7080 7.5540 53° Northeast 515 593 29,100 -2,400 Descending FlightAware ADS-B
Fri 10:19:56 AM 43.7730 7.6720 53° Northeast 498 573 27,300 -2,118 Descending FlightAware ADS-B
Fri 10:20:36 AM 43.8290 7.7720 52° Northeast 481 554 26,100 -975 Descending FlightAware ADS-B
Fri 10:21:16 AM 43.8790 7.8700 55° Northeast 483 556 26,000 -71 Descending FlightAware ADS-B
Fri 10:22:01 AM 43.9360 7.9830 55° Northeast 481 554 26,000  Level FlightAware ADS-B
Fri 10:22:41 AM 43.9870 8.0830 55° Northeast 485 558 26,000  Level FlightAware ADS-B
Fri 10:23:21 AM 44.0330 8.1930 60° Northeast 491 565 26,000 -71 Level FlightAware ADS-B
Fri 10:24:06 AM 44.0730 8.3210 66° East 491 565 25,900 -494 Descending FlightAware ADS-B
Fri 10:24:46 AM 44.1110 8.4400 66° East 488 562 25,300 -1,200 Descending FlightAware ADS-B
Fri 10:25:26 AM 44.1470 8.5530 66° East 485 558 24,300 -1,906 Descending FlightAware ADS-B
Fri 10:26:11 AM 44.2040 8.6570 53° Northeast 447 514 22,600 -2,220 Descending FlightAware ADS-B
Fri 10:27:06 AM 44.3000 8.7020 19° North 403 464 20,600 -1,680 Descending FlightAware ADS-B
Fri 10:27:51 AM 44.3810 8.7110 North 397 457 19,800 -1,800 Descending FlightAware ADS-B
Fri 10:28:06 AM 44.4110 8.7100 359° North 395 455 18,800 -3,000 Descending FlightAware ADS-B
Fri 10:28:41 AM 44.4780 8.7050 357° North 409 471 17,300 -1,760 Descending FlightAware ADS-B
Fri 10:29:21 AM 44.5500 8.7010 358° North 385 443 16,600 -988 Descending FlightAware ADS-B
Fri 10:30:06 AM 44.6270 8.6960 357° North 350 403 15,900 -988 Descending FlightAware ADS-B
Fri 10:30:46 AM 44.6890 8.6920 357° North 328 377 15,200 -988 Descending FlightAware ADS-B
Fri 10:31:31 AM 44.7560 8.6870 357° North 312 359 14,500 -880 Descending FlightAware ADS-B
Fri 10:32:01 AM 44.7970 8.6840 357° North 306 352 14,100 -686 Descending FlightAware ADS-B
Fri 10:32:41 AM 44.8530 8.6810 358° North 282 325 13,700 -600 Descending FlightAware ADS-B
Fri 10:33:01 AM 44.8780 8.6900 14° North 287 330 13,500 -857 Descending FlightAware ADS-B
Fri 10:33:16 AM 44.8920 8.7110 47° Northeast 293 337 13,200 -1,200 Descending FlightAware ADS-B
Fri 10:33:41 AM 44.9140 8.7450 48° Northeast 282 325 12,700 -1,200 Descending FlightAware ADS-B
Fri 10:34:26 AM 44.9660 8.7800 25° Northeast 274 315 11,800 -1,200 Descending FlightAware ADS-B
Fri 10:35:06 AM 45.0120 8.8080 23° Northeast 275 316 11,000 -1,200 Descending FlightAware ADS-B
Fri 10:36:01 AM 45.0740 8.8490 25° Northeast 269 310 9,900 -1,200 Descending FlightAware ADS-B
Fri 10:36:16 AM 45.0890 8.8600 27° Northeast 267 307 9,600 -1,309 Descending FlightAware ADS-B
Fri 10:36:56 AM 45.1360 8.8700 North 253 291 8,700 -1,280 Descending FlightAware ADS-B
Fri 10:37:31 AM 45.1770 8.8590 349° North 248 285 8,000 -1,100 Descending FlightAware ADS-B
Fri 10:37:56 AM 45.2040 8.8520 350° North 244 281 7,600 -1,091 Descending FlightAware ADS-B
Fri 10:38:26 AM 45.2360 8.8440 350° North 238 274 7,000 -655 Descending FlightAware ADS-B
Fri 10:38:51 AM 45.2620 8.8370 349° North 238 274 7,000 -675 Level FlightAware ADS-B
Fri 10:41:00 AM 45.4944 8.7685 348° North  Level Estimated
Fri 10:41:06 AM 45.4050 8.7950 348° North 236 272 5,200  Level FlightAware ADS-B
Fri 10:43:00 AM 45.6104 8.7341 348° North  Level Estimated
Fri 10:44:00 AM 45.6306 8.7281 348° North  Level Estimated
Fri 10:45:00 AM 45.6306 8.7281 170° South  Level Estimated
Fri 10:46:00 AM 45.6306 8.7281 170° South  Level Estimated
Fri 10:47:00 AM 45.6306 8.7281 170° South  Level Estimated
Fri 10:48:00 AM 45.6306 8.7281 170° South  Level Estimated
Fri 10:49:00 AM 45.6306 8.7281 170° South  Level Estimated
Fri 10:50:00 AM 45.6306 8.7281 170° South  Level Estimated
Fri 10:51:00 AM 45.6306 8.7281 170° South  Level Estimated
Fri 10:52:00 AM 45.6306 8.7281 170° South  Level Estimated
Fri 10:53:00 AM 45.6306 8.7281 170° South  Level Estimated
Fri 10:54:00 AM 45.6306 8.7281 170° South  Level Estimated

Login

Don't have an account? Register now (free) for customized features, flight alerts, and more!